Time;durP1;ratioP1;P1;durP2;ratioP2;P2;SDS_P1;SDS_P2;PMS_P1;PMS_P2;Temp;Humidity;BMP_temperature;BMP_pressure;BME280_temperature;BME280_humidity;BME280_pressure;Samples;Min_cycle;Max_cycle;Signal;HPM_P1;HPM_P2
2022/10/27 00:00:23;;;;;;;7.53;3.10;;;;;;;16.45;80.01;102037.44;6185716;23;20328;-81
2022/10/27 00:02:49;;;;;;;8.18;3.38;;;;;;;16.44;79.83;102046.31;6186671;23;20005;-80
2022/10/27 00:05:14;;;;;;;10.45;3.38;;;;;;;16.38;80.29;102051.63;6188282;23;20005;-80
2022/10/27 00:07:40;;;;;;;9.07;3.78;;;;;;;16.32;79.97;102048.94;6161895;23;20013;-80
2022/10/27 00:10:06;;;;;;;8.63;3.58;;;;;;;16.30;79.96;102034.66;6188194;23;20015;-80
2022/10/27 00:12:32;;;;;;;8.32;3.42;;;;;;;16.23;79.99;102045.31;6187645;23;20013;-80
2022/10/27 00:14:58;;;;;;;10.90;3.67;;;;;;;16.19;79.94;102039.94;6161544;23;20466;-80
2022/10/27 00:17:24;;;;;;;11.27;3.58;;;;;;;16.19;80.12;102046.16;6187916;23;20001;-80
2022/10/27 00:19:49;;;;;;;10.60;4.00;;;;;;;16.16;80.08;102045.25;6186345;23;20025;-80
2022/10/27 00:22:14;;;;;;;9.15;3.40;;;;;;;16.06;80.15;102035.38;6187780;23;20005;-80
2022/10/27 00:24:40;;;;;;;8.63;3.20;;;;;;;15.96;80.42;102042.44;6185900;23;20016;-80
2022/10/27 00:27:07;;;;;;;8.18;3.90;;;;;;;15.99;80.60;102047.78;6187816;23;20008;-80
2022/10/27 00:29:33;;;;;;;9.60;4.10;;;;;;;15.93;80.63;102047.72;6187730;23;20016;-80
2022/10/27 00:31:58;;;;;;;10.40;3.80;;;;;;;15.92;80.59;102049.50;6187706;23;20009;-80
2022/10/27 00:34:24;;;;;;;8.50;3.88;;;;;;;15.86;81.07;102059.25;6187742;23;20009;-81
2022/10/27 00:36:49;;;;;;;13.13;3.95;;;;;;;15.76;81.20;102045.84;6187706;23;20009;-80
2022/10/27 00:39:15;;;;;;;9.35;4.18;;;;;;;15.78;81.33;102056.50;6161172;23;20064;-80
2022/10/27 00:41:42;;;;;;;10.18;3.83;;;;;;;15.72;81.46;102060.03;6187334;23;20023;-80
2022/10/27 00:44:42;;;;;;;9.15;4.10;;;;;;;15.75;81.85;102065.34;6187412;23;20005;-80
2022/10/27 00:47:08;;;;;;;6.10;3.35;;;;;;;15.61;81.92;102064.31;6187688;23;20001;-80
2022/10/27 00:49:39;;;;;;;6.72;3.60;;;;;;;15.56;82.53;102067.81;6186088;23;20103;-80
2022/10/27 00:52:44;;;;;;;10.02;3.90;;;;;;;15.60;82.10;102067.88;6188056;23;20012;-80
2022/10/27 00:55:29;;;;;;;7.45;3.65;;;;;;;15.57;82.48;102061.59;6174427;23;20031;-80
2022/10/27 00:57:59;;;;;;;9.38;3.92;;;;;;;15.55;82.85;102074.03;6186066;23;20009;-80
2022/10/27 01:00:25;;;;;;;8.77;4.10;;;;;;;15.49;82.66;102065.06;6187527;23;20011;-80
2022/10/27 01:02:51;;;;;;;9.10;3.95;;;;;;;15.53;83.07;102069.56;6187676;23;20357;-80
2022/10/27 01:05:19;;;;;;;8.90;3.90;;;;;;;15.55;83.04;102071.38;6136552;23;20013;-80
2022/10/27 01:07:47;;;;;;;5.60;3.78;;;;;;;15.48;83.18;102073.94;6187423;23;20005;-79
2022/10/27 01:10:13;;;;;;;7.80;3.58;;;;;;;15.51;82.97;102071.31;6187383;23;20419;-80
2022/10/27 01:12:40;;;;;;;9.80;3.80;;;;;;;15.45;82.85;102068.59;6186968;23;20088;-80
2022/10/27 01:15:06;;;;;;;9.18;3.58;;;;;;;15.43;83.09;102073.03;6186565;23;20375;-80
2022/10/27 01:17:43;;;;;;;7.68;3.63;;;;;;;15.42;83.23;102067.69;6187270;23;20008;-80
2022/10/27 01:20:33;;;;;;;6.60;3.80;;;;;;;15.45;83.30;102079.25;6187338;23;20001;-80
2022/10/27 01:23:08;;;;;;;8.98;3.80;;;;;;;15.42;83.70;102079.22;6187568;23;20052;-80
2022/10/27 01:26:15;;;;;;;7.32;3.60;;;;;;;15.46;83.51;102083.72;6187300;23;20005;-80
2022/10/27 01:28:59;;;;;;;8.15;3.78;;;;;;;15.45;83.44;102086.34;6187617;23;20040;-80
2022/10/27 01:31:54;;;;;;;5.53;3.65;;;;;;;15.43;83.68;102081.00;6187152;23;20446;-80
2022/10/27 01:34:36;;;;;;;6.78;3.60;;;;;;;15.42;83.00;102081.91;6187623;23;20009;-80
2022/10/27 01:37:14;;;;;;;9.32;3.58;;;;;;;15.42;83.62;102075.69;6187521;23;20012;-80
2022/10/27 01:39:47;;;;;;;6.50;3.40;;;;;;;15.43;83.65;102080.13;6187561;23;20088;-80
2022/10/27 01:42:24;;;;;;;8.27;3.70;;;;;;;15.36;84.46;102075.59;6187773;23;20043;-80
2022/10/27 01:44:53;;;;;;;8.85;3.40;;;;;;;15.45;84.21;102087.22;6186826;23;20075;-80
2022/10/27 01:47:21;;;;;;;7.80;3.90;;;;;;;15.43;84.06;102077.47;6161014;23;20009;-80
2022/10/27 01:49:46;;;;;;;9.52;3.53;;;;;;;15.46;84.00;102080.13;6185073;23;20063;-80
2022/10/27 01:52:37;;;;;;;6.00;3.35;;;;;;;15.50;83.58;102089.94;6160600;23;20017;-80
2022/10/27 01:55:03;;;;;;;8.90;3.60;;;;;;;15.40;84.46;102088.06;6186565;23;20328;-80
2022/10/27 01:57:34;;;;;;;9.48;4.00;;;;;;;15.36;85.01;102083.59;6187856;23;20076;-80
2022/10/27 02:00:05;;;;;;;9.40;3.63;;;;;;;15.40;84.47;102078.31;6187332;23;20001;-79
2022/10/27 02:02:45;;;;;;;6.13;3.53;;;;;;;15.38;84.42;102077.41;6187147;23;20071;-80
2022/10/27 02:05:43;;;;;;;8.65;3.60;;;;;;;15.40;84.27;102080.97;6187159;23;20035;-80
2022/10/27 02:08:31;;;;;;;8.27;3.60;;;;;;;15.35;84.82;102077.38;6187157;23;20001;-80
2022/10/27 02:11:00;;;;;;;8.75;3.70;;;;;;;15.39;84.54;102072.97;6187478;23;20066;-80
2022/10/27 02:13:28;;;;;;;9.10;3.88;;;;;;;15.34;84.80;102074.69;6187390;23;20016;-80
2022/10/27 02:16:28;;;;;;;9.65;4.03;;;;;;;15.37;84.62;102072.03;6186749;23;20001;-80
2022/10/27 02:19:00;;;;;;;5.65;3.50;;;;;;;15.35;84.20;102072.03;6138465;23;20076;-80
2022/10/27 02:21:30;;;;;;;8.40;3.85;;;;;;;15.36;84.77;102056.94;6186178;23;20036;-80
2022/10/27 02:23:55;;;;;;;9.73;3.90;;;;;;;15.30;84.78;102056.91;6187259;23;20365;-80
2022/10/27 02:26:43;;;;;;;8.90;3.70;;;;;;;15.30;84.98;102064.88;6186967;23;20020;-80
2022/10/27 02:29:17;;;;;;;7.90;3.80;;;;;;;15.23;85.46;102053.25;6187044;23;20359;-80
2022/10/27 02:31:47;;;;;;;7.47;3.70;;;;;;;15.18;85.29;102044.34;6186922;23;20060;-80
2022/10/27 02:34:15;;;;;;;8.90;4.00;;;;;;;15.22;85.28;102056.81;6160894;23;20319;-81
2022/10/27 02:36:40;;;;;;;10.00;3.72;;;;;;;15.16;85.30;102056.72;6136050;23;20438;-80
2022/10/27 02:39:06;;;;;;;7.68;3.90;;;;;;;15.09;85.49;102053.13;6160353;23;20079;-80
2022/10/27 02:41:31;;;;;;;10.82;4.50;;;;;;;15.00;86.43;102058.34;6184264;23;20103;-80
2022/10/27 02:43:56;;;;;;;10.45;3.95;;;;;;;14.90;86.64;102057.34;6185703;23;20076;-80
2022/10/27 02:46:22;;;;;;;9.50;3.70;;;;;;;14.80;86.92;102047.44;6185047;23;20036;-80
2022/10/27 02:48:47;;;;;;;8.23;3.60;;;;;;;14.87;87.08;102053.75;6184776;23;20005;-80
2022/10/27 02:51:12;;;;;;;9.60;3.92;;;;;;;14.93;87.07;102054.69;6185024;23;20005;-80
2022/10/27 02:53:38;;;;;;;9.50;3.53;;;;;;;14.96;86.21;102046.75;6211040;23;20312;-80
2022/10/27 02:56:03;;;;;;;9.73;3.50;;;;;;;15.03;86.28;102048.63;6185544;23;20020;-80
2022/10/27 02:58:29;;;;;;;8.50;3.80;;;;;;;15.03;86.20;102037.06;6185407;23;20327;-80
2022/10/27 03:00:55;;;;;;;9.93;3.92;;;;;;;15.02;86.02;102041.50;6186025;23;20440;-80
2022/10/27 03:03:24;;;;;;;8.80;3.85;;;;;;;15.01;85.99;102036.16;6186296;23;20005;-80
2022/10/27 03:05:49;;;;;;;8.52;3.70;;;;;;;14.98;86.46;102050.31;6186438;23;20005;-80
2022/10/27 03:08:15;;;;;;;12.20;3.80;;;;;;;14.94;86.45;102035.19;6186032;23;20015;-80
2022/10/27 03:10:42;;;;;;;8.90;3.45;;;;;;;14.93;86.61;102037.84;6186660;23;20017;-80
2022/10/27 03:13:07;;;;;;;11.93;3.92;;;;;;;14.92;86.88;102033.41;6186371;23;20009;-80
2022/10/27 03:15:32;;;;;;;8.00;3.75;;;;;;;14.94;86.63;102029.84;6185884;23;20016;-80
2022/10/27 03:17:58;;;;;;;12.02;3.83;;;;;;;15.01;86.48;102029.06;6184855;23;20014;-80
2022/10/27 03:20:23;;;;;;;7.95;3.75;;;;;;;15.00;86.37;102021.06;6186323;23;20060;-80
2022/10/27 03:22:49;;;;;;;7.32;3.60;;;;;;;15.02;86.57;102022.84;6186273;23;20380;-80
2022/10/27 03:25:14;;;;;;;11.05;3.75;;;;;;;15.09;86.11;102029.16;6186333;23;20036;-80
2022/10/27 03:27:43;;;;;;;8.70;3.55;;;;;;;15.09;85.69;102017.63;6187372;23;20080;-80
2022/10/27 03:30:12;;;;;;;6.13;3.20;;;;;;;15.10;85.44;102022.06;6186535;23;20104;-80
2022/10/27 03:32:38;;;;;;;7.85;3.47;;;;;;;15.09;85.53;102017.63;6186411;23;20025;-80
2022/10/27 03:35:04;;;;;;;9.18;3.38;;;;;;;15.11;85.10;102022.06;6186080;23;20055;-80
2022/10/27 03:37:29;;;;;;;7.72;3.53;;;;;;;15.00;85.30;102023.72;6187660;23;20013;-80
2022/10/27 03:39:54;;;;;;;6.80;3.33;;;;;;;14.95;85.29;102014.81;6211986;23;20017;-80
2022/10/27 03:42:20;;;;;;;11.52;3.60;;;;;;;14.93;85.81;102016.53;6187543;23;20404;-80
2022/10/27 03:44:45;;;;;;;7.28;3.38;;;;;;;14.94;86.13;102013.00;6188535;23;20009;-81
2022/10/27 03:47:10;;;;;;;5.22;3.08;;;;;;;14.96;85.85;102013.94;6188209;23;20043;-80
2022/10/27 03:49:36;;;;;;;9.55;3.33;;;;;;;14.92;86.10;102005.00;6188581;23;20353;-80
2022/10/27 03:52:01;;;;;;;8.50;3.80;;;;;;;14.93;86.02;102009.44;6186228;23;20028;-80
2022/10/27 03:54:31;;;;;;;7.50;3.40;;;;;;;14.90;86.58;102014.75;6187358;23;20009;-80
2022/10/27 03:56:56;;;;;;;9.23;3.88;;;;;;;14.88;86.56;102007.63;6188096;23;20005;-80
2022/10/27 03:59:22;;;;;;;7.93;3.40;;;;;;;14.83;86.36;102004.00;6188068;23;20036;-80
2022/10/27 04:01:48;;;;;;;11.52;3.95;;;;;;;14.79;86.87;102000.41;6187931;23;20036;-80
2022/10/27 04:04:13;;;;;;;12.85;4.05;;;;;;;14.72;86.90;101994.13;6188373;23;20001;-80
2022/10/27 04:06:38;;;;;;;8.73;3.70;;;;;;;14.74;86.77;101996.81;6188079;23;20005;-80
2022/10/27 04:09:04;;;;;;;8.93;4.10;;;;;;;14.64;87.31;101998.44;6187983;23;20016;-80
2022/10/27 04:11:30;;;;;;;10.63;4.20;;;;;;;14.58;87.34;101993.06;6188025;23;20005;-80
2022/10/27 04:13:55;;;;;;;10.02;4.40;;;;;;;14.56;87.52;102010.78;6211414;23;20005;-80
2022/10/27 04:16:20;;;;;;;11.23;4.22;;;;;;;14.51;87.39;102007.16;6187978;23;20016;-80
2022/10/27 04:18:47;;;;;;;9.43;4.82;;;;;;;14.55;87.54;102016.97;6212052;23;20012;-79
2022/10/27 04:21:13;;;;;;;16.80;4.72;;;;;;;14.50;87.82;102021.31;6187884;23;20034;-80
2022/10/27 04:23:39;;;;;;;10.63;4.50;;;;;;;14.48;87.63;102026.63;6187492;23;20009;-80
2022/10/27 04:26:04;;;;;;;10.40;4.45;;;;;;;14.44;88.08;102029.19;6186404;23;20305;-79
2022/10/27 04:28:30;;;;;;;10.10;4.43;;;;;;;14.41;87.70;102031.81;6187574;23;20016;-79
2022/10/27 04:30:55;;;;;;;7.28;4.18;;;;;;;14.37;87.88;102030.88;6186285;23;20043;-80
2022/10/27 04:33:20;;;;;;;9.32;4.78;;;;;;;14.39;87.90;102026.47;6187788;23;20013;-80
2022/10/27 04:35:46;;;;;;;10.95;4.43;;;;;;;14.46;87.51;102027.44;6187735;23;20037;-79
2022/10/27 04:38:11;;;;;;;12.50;4.25;;;;;;;14.44;87.48;102016.78;6211093;23;20013;-80
2022/10/27 04:40:36;;;;;;;12.13;4.55;;;;;;;14.46;87.49;102027.44;6187963;23;20044;-80
2022/10/27 04:43:02;;;;;;;13.48;4.32;;;;;;;14.44;86.98;102029.19;6187496;23;20009;-80
2022/10/27 04:45:27;;;;;;;11.98;4.47;;;;;;;14.41;86.99;102029.16;6187273;23;20009;-80
2022/10/27 04:47:53;;;;;;;10.65;4.43;;;;;;;14.40;86.77;102027.38;6185980;23;20491;-80
2022/10/27 04:50:18;;;;;;;10.43;4.40;;;;;;;14.42;86.71;102031.81;6186585;23;20036;-81
2022/10/27 04:52:58;;;;;;;8.75;4.75;;;;;;;14.44;87.24;102031.88;6187094;23;20013;-79
2022/10/27 04:55:25;;;;;;;9.75;4.20;;;;;;;14.34;87.04;102036.13;6188243;23;20005;-81
2022/10/27 04:57:51;;;;;;;9.65;4.30;;;;;;;14.29;87.13;102030.75;6187475;23;20009;-79
2022/10/27 05:00:17;;;;;;;11.52;4.57;;;;;;;14.34;87.27;102035.25;6161859;23;20035;-80
2022/10/27 05:02:42;;;;;;;6.80;3.92;;;;;;;14.36;87.20;102033.53;6160901;23;20480;-80
2022/10/27 05:05:08;;;;;;;8.68;4.22;;;;;;;14.38;87.39;102034.41;6187482;23;20331;-80
2022/10/27 05:07:33;;;;;;;12.40;4.00;;;;;;;14.40;87.36;102035.34;6187465;23;20009;-80
2022/10/27 05:09:59;;;;;;;13.00;4.55;;;;;;;14.41;87.41;102034.47;6187725;23;20004;-80
2022/10/27 05:12:24;;;;;;;8.90;4.18;;;;;;;14.43;87.59;102040.69;6187721;23;20059;-80
2022/10/27 05:14:50;;;;;;;8.15;4.45;;;;;;;14.38;87.73;102030.00;6187353;23;20013;-80
2022/10/27 05:17:15;;;;;;;10.63;4.53;;;;;;;14.41;87.36;102029.16;6187006;23;20016;-80
2022/10/27 05:19:40;;;;;;;11.18;4.50;;;;;;;14.41;87.40;102029.16;6187279;23;20088;-80
2022/10/27 05:22:06;;;;;;;10.68;4.55;;;;;;;14.39;87.25;102033.53;6186855;23;20020;-80
2022/10/27 05:24:31;;;;;;;9.02;3.97;;;;;;;14.38;87.44;102034.41;6187155;23;20016;-80
2022/10/27 05:26:56;;;;;;;9.63;4.55;;;;;;;14.34;87.78;102037.91;6185999;23;20036;-80
2022/10/27 05:29:22;;;;;;;9.45;4.35;;;;;;;14.31;87.88;102038.78;6187273;23;20013;-79
2022/10/27 05:31:47;;;;;;;13.82;4.20;;;;;;;14.29;87.57;102016.56;6187190;23;20096;-80
2022/10/27 05:34:13;;;;;;;8.57;4.50;;;;;;;14.37;87.54;102036.19;6187161;23;20092;-80
2022/10/27 05:36:38;;;;;;;9.25;4.28;;;;;;;14.39;87.39;102033.53;6187116;23;20005;-80
2022/10/27 05:39:03;;;;;;;8.10;4.30;;;;;;;14.38;87.18;102027.31;6160794;23;20037;-80
2022/10/27 05:41:29;;;;;;;8.75;3.92;;;;;;;14.41;87.05;102032.69;6184173;23;20072;-80
2022/10/27 05:43:54;;;;;;;13.05;4.70;;;;;;;14.39;87.06;102041.50;6210493;23;20083;-80
2022/10/27 05:46:19;;;;;;;10.52;3.70;;;;;;;14.40;86.91;102030.91;6210642;23;20035;-80
2022/10/27 05:48:45;;;;;;;9.13;4.10;;;;;;;14.43;86.98;102033.63;6186748;23;20005;-80
2022/10/27 05:51:10;;;;;;;9.57;4.13;;;;;;;14.43;86.90;102032.72;6187422;23;20044;-80
2022/10/27 05:53:36;;;;;;;7.90;3.88;;;;;;;14.44;86.93;102024.78;6185533;23;20032;-81
2022/10/27 05:56:01;;;;;;;6.93;4.05;;;;;;;14.43;86.97;102030.03;6186873;23;20013;-81
2022/10/27 05:58:26;;;;;;;17.23;4.70;;;;;;;14.40;86.83;102025.59;6186623;23;20006;-81
2022/10/27 06:00:52;;;;;;;7.88;3.67;;;;;;;14.38;86.76;102021.13;6186408;23;20009;-80
2022/10/27 06:03:22;;;;;;;9.02;3.90;;;;;;;14.45;86.44;102026.56;6187139;23;20009;-80
2022/10/27 06:05:49;;;;;;;7.93;3.70;;;;;;;14.41;86.64;102021.19;6187242;23;20080;-80
2022/10/27 06:08:16;;;;;;;9.00;3.95;;;;;;;14.44;86.67;102021.22;6187816;23;20084;-80
2022/10/27 06:10:41;;;;;;;10.73;3.92;;;;;;;14.43;86.52;102023.00;6186836;23;20009;-80
2022/10/27 06:13:09;;;;;;;8.15;3.83;;;;;;;14.47;86.26;102027.47;6185300;23;20387;-80
2022/10/27 06:15:35;;;;;;;12.15;4.22;;;;;;;14.43;86.70;102024.72;6186422;23;20062;-81
2022/10/27 06:18:01;;;;;;;11.40;3.95;;;;;;;14.45;86.84;102015.91;6187151;23;20080;-82
2022/10/27 06:20:26;;;;;;;9.20;3.85;;;;;;;14.43;86.30;102017.69;6186699;23;20420;-80
2022/10/27 06:22:52;;;;;;;7.57;4.18;;;;;;;14.39;86.27;102007.88;6186983;23;20431;-80
2022/10/27 06:25:17;;;;;;;9.80;4.00;;;;;;;14.39;86.19;102013.19;6186682;23;20079;-80
2022/10/27 06:27:44;;;;;;;6.88;3.60;;;;;;;14.36;86.00;102006.94;6186021;23;20013;-80
2022/10/27 06:30:10;;;;;;;7.43;3.45;;;;;;;14.25;86.17;101999.69;6186713;23;20036;-80
2022/10/27 06:32:39;;;;;;;7.85;3.80;;;;;;;14.23;86.39;102005.84;6186731;23;20304;-81
2022/10/27 06:35:06;;;;;;;7.07;3.70;;;;;;;14.19;86.14;101998.72;6186605;23;20087;-81
2022/10/27 06:37:32;;;;;;;11.13;3.97;;;;;;;14.13;86.43;101999.53;6186566;23;20457;-83
2022/10/27 06:39:58;;;;;;;10.85;3.63;;;;;;;14.08;86.51;102005.63;6186300;23;20091;-81
2022/10/27 06:42:23;;;;;;;8.63;3.90;;;;;;;14.00;86.97;101994.88;6160495;23;20055;-80
2022/10/27 06:44:49;;;;;;;8.00;3.90;;;;;;;13.98;86.96;101999.28;6186111;23;20442;-81
2022/10/27 06:47:15;;;;;;;7.50;3.70;;;;;;;13.92;86.97;101994.78;6186434;23;20012;-81
2022/10/27 06:49:40;;;;;;;6.03;3.60;;;;;;;13.97;86.68;101995.72;6184589;23;20013;-81
2022/10/27 06:52:05;;;;;;;7.32;3.53;;;;;;;13.99;86.64;101993.97;6186464;23;20012;-81
2022/10/27 06:54:31;;;;;;;8.13;3.47;;;;;;;13.96;86.63;101988.66;6186780;23;20009;-81
2022/10/27 06:56:56;;;;;;;8.98;3.90;;;;;;;14.03;86.81;101993.16;6186688;23;20007;-81
2022/10/27 06:59:22;;;;;;;7.95;3.50;;;;;;;14.04;86.51;101991.38;6186073;23;20009;-81
2022/10/27 07:01:47;;;;;;;5.53;3.53;;;;;;;14.10;86.17;101991.50;6185048;23;20013;-81
2022/10/27 07:04:13;;;;;;;8.70;3.67;;;;;;;14.08;86.15;101981.69;6184218;23;20017;-80
2022/10/27 07:06:38;;;;;;;10.75;3.75;;;;;;;14.13;86.27;101994.22;6185080;23;20092;-81
2022/10/27 07:09:04;;;;;;;7.57;3.45;;;;;;;14.17;85.89;101987.16;6184816;23;20013;-81
2022/10/27 07:11:29;;;;;;;9.75;3.63;;;;;;;14.20;85.77;101987.19;6186456;23;20013;-80
2022/10/27 07:13:55;;;;;;;7.82;3.67;;;;;;;14.22;85.88;101988.13;6186193;23;20009;-80
2022/10/27 07:16:20;;;;;;;8.38;3.80;;;;;;;14.29;85.19;101998.84;6186133;23;20001;-81
2022/10/27 07:18:46;;;;;;;11.15;4.10;;;;;;;14.29;85.51;102000.63;6185934;23;20009;-81
2022/10/27 07:21:12;;;;;;;8.73;3.47;;;;;;;14.34;85.41;101992.69;6184694;23;20015;-81
2022/10/27 07:23:37;;;;;;;10.00;4.03;;;;;;;14.38;85.07;102006.06;6186118;23;20005;-82
2022/10/27 07:26:02;;;;;;;9.48;3.72;;;;;;;14.41;84.66;102000.78;6185884;23;20309;-81
2022/10/27 07:28:28;;;;;;;5.38;3.45;;;;;;;14.47;84.44;102002.63;6185840;23;20009;-81
2022/10/27 07:30:54;;;;;;;6.63;3.60;;;;;;;14.45;84.49;101989.31;6159733;23;20069;-81
2022/10/27 07:33:20;;;;;;;7.72;3.70;;;;;;;14.58;83.97;101995.72;6185820;23;20088;-81
2022/10/27 07:35:50;;;;;;;9.48;3.67;;;;;;;14.63;83.94;101987.81;6186264;23;20028;-81
2022/10/27 07:38:16;;;;;;;8.65;3.75;;;;;;;14.72;83.43;101990.56;6186159;23;20001;-81
2022/10/27 07:40:41;;;;;;;7.85;3.65;;;;;;;14.79;83.23;101989.78;6198514;23;20083;-81
2022/10/27 07:43:08;;;;;;;8.77;3.72;;;;;;;14.91;82.54;101989.91;6186836;23;20016;-81
2022/10/27 07:45:36;;;;;;;7.85;3.67;;;;;;;15.06;81.64;101997.16;6186220;23;20028;-81
2022/10/27 07:48:02;;;;;;;8.32;3.60;;;;;;;15.22;81.21;101995.56;6186298;23;20324;-81
2022/10/27 07:50:28;;;;;;;6.25;3.55;;;;;;;15.38;80.57;101996.63;6186556;23;20001;-80
2022/10/27 07:52:54;;;;;;;7.35;3.47;;;;;;;15.56;80.20;101986.13;6186573;23;20013;-81
2022/10/27 07:55:24;;;;;;;8.48;3.50;;;;;;;15.89;78.76;102000.63;6185843;23;20013;-81
2022/10/27 07:58:04;;;;;;;9.38;3.42;;;;;;;16.14;77.65;101996.34;6184291;23;20095;-81
2022/10/27 08:00:33;;;;;;;12.45;3.63;;;;;;;16.34;76.82;102001.81;6186204;23;20001;-81
2022/10/27 08:03:00;;;;;;;9.20;3.58;;;;;;;16.43;75.73;102004.50;6186110;23;20005;-81
2022/10/27 08:05:26;;;;;;;10.23;3.65;;;;;;;16.44;75.94;102015.19;6186116;23;20009;-81
2022/10/27 08:07:51;;;;;;;6.40;3.13;;;;;;;16.45;75.40;102006.31;6186188;23;20009;-81
2022/10/27 08:10:16;;;;;;;10.98;3.47;;;;;;;16.44;75.57;101988.50;6135526;23;20005;-81
2022/10/27 08:12:43;;;;;;;5.85;3.10;;;;;;;16.48;75.26;101992.97;6209606;23;20063;-82
2022/10/27 08:15:10;;;;;;;6.90;3.50;;;;;;;16.44;75.11;101995.63;6186791;23;20408;-81
2022/10/27 08:17:37;;;;;;;6.22;3.30;;;;;;;16.40;75.21;101989.41;6186105;23;20080;-81
2022/10/27 08:20:02;;;;;;;7.43;3.20;;;;;;;16.39;75.55;101981.38;6185660;23;20008;-81
2022/10/27 08:22:28;;;;;;;7.35;3.50;;;;;;;16.44;75.62;101992.94;6184459;23;20072;-81
2022/10/27 08:24:53;;;;;;;11.10;3.30;;;;;;;16.63;74.38;101989.50;6161611;23;20009;-81
2022/10/27 08:27:19;;;;;;;8.40;3.40;;;;;;;16.76;74.06;101975.34;6188755;23;20308;-81
2022/10/27 08:29:45;;;;;;;5.63;2.97;;;;;;;16.84;73.57;101971.81;6188041;23;20036;-82
2022/10/27 08:32:10;;;;;;;7.05;3.15;;;;;;;17.05;72.55;101995.00;6187517;23;20375;-81
2022/10/27 08:34:36;;;;;;;6.53;3.03;;;;;;;17.23;71.65;101989.69;6185876;23;20331;-80
2022/10/27 08:37:01;;;;;;;8.27;3.40;;;;;;;17.43;71.78;101984.34;6187753;23;20040;-81
2022/10/27 08:39:26;;;;;;;5.88;3.25;;;;;;;17.76;69.66;101976.38;6186123;23;20335;-81
2022/10/27 08:42:15;;;;;;;6.03;3.20;;;;;;;18.17;69.50;101982.56;6161650;23;20012;-81
2022/10/27 08:44:43;;;;;;;7.20;3.60;;;;;;;18.30;67.87;101980.75;6186282;23;20013;-81
2022/10/27 08:47:17;;;;;;;8.18;3.30;;;;;;;18.62;67.01;101983.28;6187895;23;20054;-82
2022/10/27 08:49:50;;;;;;;6.50;3.38;;;;;;;18.80;65.74;101972.56;6187947;23;20008;-83
2022/10/27 08:52:15;;;;;;;;;;;;;;;19.00;67.34;101975.09;6188424;23;20080;-84
2022/10/27 08:54:46;;;;;;;7.55;3.42;;;;;;;18.92;63.89;101971.56;6187289;23;19935;-82
2022/10/27 08:57:18;;;;;;;8.70;3.42;;;;;;;18.95;64.88;101974.25;6187412;23;20013;-82
2022/10/27 08:59:44;;;;;;;8.55;3.33;;;;;;;18.80;64.19;101967.19;6187527;23;20009;-82
2022/10/27 09:02:21;;;;;;;4.95;3.00;;;;;;;18.74;64.76;101969.88;6187018;23;20455;-82
2022/10/27 09:04:52;;;;;;;5.88;3.33;;;;;;;18.84;65.12;101962.69;6188499;23;20001;-83
2022/10/27 09:07:36;;;;;;;7.22;3.42;;;;;;;19.01;65.19;101951.00;6187479;23;20031;-82
2022/10/27 09:10:05;;;;;;;7.30;3.30;;;;;;;19.39;62.92;101940.88;6187524;23;20012;-81
2022/10/27 09:12:58;;;;;;;5.72;3.20;;;;;;;19.54;63.49;101929.16;6161326;23;20128;-82
2022/10/27 09:15:30;;;;;;;7.95;3.05;;;;;;;19.46;62.33;101938.13;6185806;23;20092;-82
2022/10/27 09:17:59;;;;;;;7.03;3.17;;;;;;;19.41;62.93;101928.38;6186973;23;20114;-82
2022/10/27 09:20:55;;;;;;;6.35;3.10;;;;;;;19.43;62.38;101937.25;6187307;23;20012;-82
2022/10/27 09:23:45;;;;;;;5.90;2.47;;;;;;;19.47;62.91;101931.88;6137059;23;20011;-83
2022/10/27 09:26:15;;;;;;;9.05;2.85;;;;;;;19.45;61.17;101936.38;6187306;23;20013;-82
2022/10/27 09:28:48;;;;;;;7.00;2.92;;;;;;;19.46;61.95;101931.88;6187256;23;20080;-82
2022/10/27 09:31:20;;;;;;;6.38;2.85;;;;;;;19.42;61.38;101924.78;6186879;23;20332;-82
2022/10/27 09:33:58;;;;;;;6.43;2.70;;;;;;;19.49;62.04;101919.34;6187197;23;20016;-81
2022/10/27 09:36:23;;;;;;;5.60;2.78;;;;;;;19.47;62.10;101923.81;6187241;23;20001;-83
2022/10/27 09:38:49;;;;;;;5.68;2.53;;;;;;;19.56;61.39;101917.47;6187073;23;20084;-82
2022/10/27 09:41:14;;;;;;;8.27;2.78;;;;;;;19.58;61.57;101920.16;6187573;23;20017;-82
2022/10/27 09:43:40;;;;;;;9.15;2.75;;;;;;;19.66;61.36;101911.19;6186690;23;20133;-83
2022/10/27 09:46:15;;;;;;;8.07;2.72;;;;;;;19.69;61.59;101911.13;6186655;23;20012;-82
2022/10/27 09:48:41;;;;;;;6.32;2.78;;;;;;;19.68;61.38;101906.69;6186736;23;20012;-81
2022/10/27 09:51:25;;;;;;;5.80;2.80;;;;;;;19.82;61.40;101902.97;6187291;23;20312;-81
2022/10/27 09:53:52;;;;;;;7.32;2.80;;;;;;;19.96;60.42;101899.25;6185452;23;20005;-80
2022/10/27 09:56:29;;;;;;;6.70;2.67;;;;;;;20.17;60.55;101881.09;6186935;23;20024;-81
2022/10/27 09:58:59;;;;;;;7.57;2.88;;;;;;;20.58;59.02;101904.75;6186967;23;20009;-82
2022/10/27 10:01:26;;;;;;;4.60;2.78;;;;;;;20.81;58.55;101900.84;6187892;23;20009;-81
2022/10/27 10:03:54;;;;;;;10.70;3.00;;;;;;;21.09;57.26;101898.63;6186839;23;20442;-80
2022/10/27 10:06:28;;;;;;;5.88;2.60;;;;;;;21.16;58.10;101909.25;6160540;23;20328;-81
2022/10/27 10:08:53;;;;;;;6.15;2.58;;;;;;;21.40;56.89;101905.28;6186614;23;20371;-82
2022/10/27 10:11:21;;;;;;;7.68;2.70;;;;;;;21.67;56.69;101901.25;6160536;23;20020;-80
2022/10/27 10:14:01;;;;;;;7.80;2.53;;;;;;;21.90;56.94;101891.84;6186212;23;20013;-81
2022/10/27 10:16:28;;;;;;;6.70;2.40;;;;;;;22.12;55.40;101890.53;6199325;23;20005;-80
2022/10/27 10:19:22;;;;;;;6.47;2.72;;;;;;;22.16;55.67;101886.84;6201397;23;20005;-80
2022/10/27 10:21:57;;;;;;;4.70;2.40;;;;;;;22.16;54.69;101889.53;6188529;23;20328;-80
2022/10/27 10:24:33;;;;;;;8.73;2.72;;;;;;;22.12;54.31;101889.59;6162193;23;20083;-80
2022/10/27 10:27:03;;;;;;;7.13;2.40;;;;;;;22.06;55.46;101889.75;6190749;23;20037;-80
2022/10/27 10:29:32;;;;;;;7.70;2.60;;;;;;;21.79;55.21;101883.97;6193918;23;20056;-81
2022/10/27 10:32:21;;;;;;;6.43;2.63;;;;;;;21.65;55.69;101868.09;6186732;23;20036;-82
2022/10/27 10:34:47;;;;;;;12.30;2.45;;;;;;;21.47;55.61;101889.94;6187311;23;20005;-81
2022/10/27 10:37:35;;;;;;;4.40;2.30;;;;;;;21.39;55.55;101881.13;6186440;23;20009;-81
2022/10/27 10:40:25;;;;;;;7.22;2.50;;;;;;;21.19;57.19;101884.13;6186939;23;20013;-82
2022/10/27 10:43:02;;;;;;;9.30;2.55;;;;;;;21.06;57.25;101887.91;6186833;23;20001;-81
2022/10/27 10:45:32;;;;;;;5.50;2.30;;;;;;;21.13;57.86;101877.06;6186197;23;20464;-83
2022/10/27 10:48:26;;;;;;;4.75;2.22;;;;;;;21.14;57.72;101865.38;6185689;23;20503;-83
2022/10/27 10:50:52;;;;;;;5.75;2.20;;;;;;;21.19;57.78;101851.84;6186289;23;20008;-82
2022/10/27 10:53:30;;;;;;;4.55;2.10;;;;;;;21.37;57.54;101858.75;6186164;23;20409;-82
2022/10/27 10:56:01;;;;;;;5.30;2.10;;;;;;;21.55;57.38;101863.81;6161179;23;20001;-81
2022/10/27 10:58:30;;;;;;;7.72;2.47;;;;;;;21.53;55.67;101860.25;6186108;23;20305;-81
2022/10/27 11:00:57;;;;;;;6.05;2.13;;;;;;;21.61;55.97;101857.41;6184509;23;20043;-81
2022/10/27 11:03:25;;;;;;;6.88;2.50;;;;;;;21.61;55.81;101850.22;6186256;23;20012;-81
2022/10/27 11:05:57;;;;;;;6.75;2.40;;;;;;;21.54;55.80;101853.06;6186414;23;20316;-81
2022/10/27 11:08:23;;;;;;;;;;;;;;;21.62;57.87;101857.38;6187320;23;20036;-81
2022/10/27 11:10:51;;;;;;;10.10;2.30;;;;;;;21.57;57.35;101842.25;6161010;23;19908;-81
2022/10/27 11:13:24;;;;;;;5.80;2.33;;;;;;;21.58;56.96;101858.34;6186295;23;20059;-82
2022/10/27 11:16:05;;;;;;;5.63;2.40;;;;;;;21.65;57.52;101857.31;6186340;23;20006;-81
2022/10/27 11:18:49;;;;;;;5.03;2.30;;;;;;;21.68;57.29;101854.59;6185970;23;20012;-80
2022/10/27 11:21:53;;;;;;;4.68;2.50;;;;;;;21.63;57.06;101853.78;6185389;23;20076;-80
2022/10/27 11:24:35;;;;;;;5.50;2.10;;;;;;;21.48;58.07;101848.69;6186116;23;20001;-80
2022/10/27 11:27:09;;;;;;;5.65;2.28;;;;;;;21.43;57.30;101837.13;6186935;23;20289;-80
2022/10/27 11:29:46;;;;;;;9.02;2.40;;;;;;;21.45;58.20;101843.34;6160221;23;20415;-81
2022/10/27 11:32:35;;;;;;;8.88;2.42;;;;;;;21.43;59.28;101848.78;6160267;23;20104;-81
2022/10/27 11:35:08;;;;;;;6.00;2.40;;;;;;;21.33;58.71;101843.59;6174075;23;20127;-80